Terminal Aerodrome Forecast
Issued by NWS

Home | Current Version | Previous Version | Text Only | Print | Product List | Glossary On
Versions: 1 2 3 4 5 6 7 8 9 10 11 12 13 14 15 16 17 18 19 20 21 22 23 24 25 26 27 28 29 30 31
433
FTUS41 KOKX 271139
TAFTEB
TAF
KTEB 271139Z 2712/2812 07004KT 2SM -DZ OVC005 WS020/22035KT
     FM271300 14004KT 4SM -RA BR OVC006 WS020/22035KT
     FM271600 18005KT 5SM -RA BR OVC010
     FM271800 22006KT P6SM OVC015
     FM272100 22006KT P6SM BKN030
     FM280300 19003KT 6SM -DZ BR OVC025
     FM281000 VRB02KT 1SM BR OVC007=

USA.gov is the U.S. government's official web portal to all federal, state and local government web resources and services.